Wetterdaten der Wetterstation 31177 Harsum

Letzte Wetterlage 20.12.2014 17:03
Wetterdiagramm
Tabellarische Darstellung
Datum Temperatur Windchill Feuchte Luftdruck Windrichtung Windstärke Niederschlag
20.12.2014 17:03 3,8 °C 3,8 °C 88 % 1011,1 hPa 203 1.6 1,00 mm
20.12.2014 16:43 3,8 °C 2,7 °C 86 % 1010,1 hPa 180 2.1 2,00 mm
20.12.2014 16:23 3,9 °C 1,1 °C 88 % 1009,9 hPa 180 2.7 2,10 mm
20.12.2014 16:02 4,1 °C 1,0 °C 89 % 1009,1 hPa 180 2.8 2,10 mm
20.12.2014 15:41 3,6 °C 3,6 °C 91 % 1009,1 hPa 158 1.6 1,10 mm
20.12.2014 15:21 6,0 °C 6,0 °C 71 % 1008,1 hPa 135 2.0 0,00 mm
20.12.2014 15:01 6,7 °C 4,6 °C 76 % 1009,1 hPa 225 2.5 0,00 mm
20.12.2014 14:40 6,3 °C 1,1 °C 77 % 1009,1 hPa 180 3.9 0,00 mm
20.12.2014 14:20 6,4 °C 3,1 °C 77 % 1009,1 hPa 180 3.0 0,00 mm
20.12.2014 13:59 6,5 °C 5,0 °C 77 % 1009,1 hPa 180 2.3 0,00 mm
20.12.2014 13:39 6,5 °C 3,0 °C 79 % 1009,1 hPa 158 3.1 0,00 mm
20.12.2014 13:17 6,2 °C 1,4 °C 78 % 1008,1 hPa 203 3.7 0,00 mm
20.12.2014 12:56 6,5 °C 3,9 °C 77 % 1008,4 hPa 203 2.7 0,00 mm
20.12.2014 12:36 6,4 °C 2,0 °C 76 % 1010,1 hPa 180 3.5 0,00 mm
20.12.2014 12:15 6,5 °C 4,4 °C 76 % 1011,1 hPa 203 2.5 0,00 mm
20.12.2014 11:55 6,6 °C 3,8 °C 74 % 1010,9 hPa 203 2.8 0,00 mm
20.12.2014 11:34 6,4 °C 6,4 °C 75 % 1011,1 hPa 180 1.9 0,00 mm
20.12.2014 11:13 6,5 °C 1,7 °C 72 % 1011,1 hPa 180 3.7 0,00 mm
20.12.2014 10:53 6,7 °C 2,0 °C 71 % 1011,1 hPa 135 3.7 0,00 mm
20.12.2014 10:33 6,7 °C 1,6 °C 69 % 1011,1 hPa 225 3.9 0,00 mm
20.12.2014 10:12 6,7 °C 4,6 °C 68 % 1010,1 hPa 180 2.5 0,00 mm
20.12.2014 09:51 6,6 °C 3,8 °C 68 % 1011,1 hPa 203 2.8 0,00 mm
20.12.2014 09:31 6,5 °C 3,0 °C 69 % 1011,1 hPa 180 3.1 0,00 mm
20.12.2014 09:11 6,4 °C 3,8 °C 68 % 1011,1 hPa 135 2.7 0,00 mm
20.12.2014 08:51 6,4 °C 4,3 °C 69 % 1012,1 hPa 180 2.5 0,00 mm
Empfehlen Sie wetter.com
| Mehr
Neue Wetterwarnung

Neue Niederschlagsmeldung
Neue Meldung
Regen Liveticker
    sehr starker Regen/Gewitter
    starker Regen/Gewitter
    mäßiger bis starker Regen
    mäßiger Regen
    leichter bis mäßiger Regen
    kein Regen